Shirley, Maine
Current Conditions -  °F | °C
As of 2:53 PM on Friday 19 Dec 2014 (Local Time) from KBGR Reporting Station
Scattered Clouds Scattered Clouds  
Wind Chill: 20°   Ceiling: Unl
Heat Index: 30°   Visibility: 10mi
Dew Point: 22°   Wind: 14mph
Humidity: 72%   Direction: 320°NW
Pressure: 29.93"   Gusts: NA
Location:  45.3646°N, 69.6212°W
Report Text: KBGR 191953Z 32012KT 10SM SCT025 M01/M06 A2993 RMK AO2 SLP138 T10111056
Loading
Personal Weather Stations






























Interactive Weather Map New forecast layout! Learn more

10-Day Weather Forecast

Advertisements
Track Severe Weather on mobile